createdAt,value
2019-04-07T00:01:50.402Z,4.17
2019-04-07T00:04:21.554Z,2.70
2019-04-07T00:06:52.056Z,3.23
2019-04-07T00:09:22.307Z,3.03
2019-04-07T00:11:53.466Z,3.20
2019-04-07T00:14:23.887Z,2.83
2019-04-07T00:16:54.191Z,3.13
2019-04-07T00:19:24.083Z,4.40
2019-04-07T00:21:54.798Z,2.63
2019-04-07T00:24:25.129Z,5.70
2019-04-07T00:26:55.508Z,6.83
2019-04-07T00:29:26.449Z,4.27
2019-04-07T00:31:57.473Z,4.70
2019-04-07T00:34:28.847Z,7.20
2019-04-07T00:37:01.422Z,3.77
2019-04-07T00:39:31.398Z,2.93
2019-04-07T00:42:01.807Z,3.37
2019-04-07T00:44:32.713Z,5.10
2019-04-07T00:47:03.099Z,4.30
2019-04-07T00:49:32.990Z,8.83
2019-04-07T00:52:06.390Z,3.13
2019-04-07T00:54:36.990Z,3.50
2019-04-07T00:57:06.971Z,4.53
2019-04-07T00:59:37.249Z,3.50
2019-04-07T01:02:07.084Z,3.57
2019-04-07T01:04:36.993Z,6.80
2019-04-07T01:07:06.850Z,4.13
2019-04-07T01:09:36.741Z,5.03
2019-04-07T01:12:09.379Z,4.50
2019-04-07T01:14:40.305Z,8.07
2019-04-07T01:17:11.530Z,3.17
2019-04-07T01:19:41.597Z,4.83
2019-04-07T01:22:11.826Z,4.00
2019-04-07T01:24:42.186Z,4.00
2019-04-07T01:27:14.665Z,4.03
2019-04-07T01:29:45.430Z,3.50
2019-04-07T01:32:16.550Z,3.80
2019-04-07T01:34:46.939Z,10.47
2019-04-07T01:37:16.798Z,3.83
2019-04-07T01:39:47.727Z,5.10
2019-04-07T01:42:34.496Z,4.10
2019-04-07T01:45:21.721Z,4.83
2019-04-07T01:48:08.825Z,6.73
2019-04-07T01:50:56.067Z,3.63
2019-04-07T01:53:47.946Z,3.63
2019-04-07T01:56:26.290Z,3.57
2019-04-07T01:59:16.683Z,5.03
2019-04-07T02:02:04.678Z,4.00
2019-04-07T02:04:53.346Z,4.50
2019-04-07T02:07:42.025Z,3.90
2019-04-07T02:10:34.092Z,4.10
2019-04-07T02:13:29.875Z,4.00
2019-04-07T02:16:20.395Z,3.67
2019-04-07T02:18:59.904Z,5.13
2019-04-07T02:21:40.612Z,5.07
2019-04-07T02:24:21.311Z,3.27
2019-04-07T02:27:14.056Z,4.03
2019-04-07T02:30:01.196Z,4.23
2019-04-07T02:32:59.992Z,4.37
2019-04-07T02:35:45.040Z,4.43
2019-04-07T02:38:42.648Z,3.83
2019-04-07T02:41:24.460Z,4.13
2019-04-07T02:44:05.135Z,4.93
2019-04-07T02:46:54.695Z,5.17
2019-04-07T02:49:41.796Z,5.13
2019-04-07T02:52:30.900Z,6.60
2019-04-07T02:55:19.807Z,4.83
2019-04-07T02:58:11.279Z,4.77
2019-04-07T03:00:50.891Z,4.97
2019-04-07T03:03:37.146Z,4.90
2019-04-07T03:06:47.752Z,4.73
2019-04-07T03:09:29.976Z,4.40
2019-04-07T03:12:12.380Z,5.27
2019-04-07T03:14:47.637Z,5.00
2019-04-07T03:17:31.910Z,7.80
2019-04-07T03:20:29.758Z,4.90
2019-04-07T03:23:20.403Z,5.03
2019-04-07T03:26:08.154Z,4.70
2019-04-07T03:28:47.551Z,5.30
2019-04-07T03:31:27.034Z,5.00
2019-04-07T03:34:19.013Z,11.13
2019-04-07T03:37:21.728Z,4.77
2019-04-07T03:39:50.177Z,4.70
2019-04-07T03:42:38.493Z,4.90
2019-04-07T03:45:29.428Z,7.20
2019-04-07T03:48:21.237Z,9.70
2019-04-07T03:51:22.407Z,6.40
2019-04-07T03:54:07.365Z,5.03
2019-04-07T03:56:53.630Z,5.33
2019-04-07T04:00:00.619Z,4.60
2019-04-07T04:02:49.237Z,5.33
2019-04-07T04:05:29.536Z,5.93
2019-04-07T04:08:09.594Z,4.67
2019-04-07T04:11:01.722Z,4.53
2019-04-07T04:14:06.150Z,5.37
2019-04-07T04:16:40.775Z,5.30
2019-04-07T04:19:11.045Z,5.17
2019-04-07T04:21:40.883Z,4.80
2019-04-07T04:24:10.726Z,4.70
2019-04-07T04:26:40.560Z,6.70
2019-04-07T04:29:10.564Z,4.90
2019-04-07T04:31:40.600Z,7.43
2019-04-07T04:34:10.474Z,5.33
2019-04-07T04:36:40.641Z,5.53
2019-04-07T04:39:10.439Z,7.43
2019-04-07T04:41:40.673Z,10.07
2019-04-07T04:44:10.519Z,5.50
2019-04-07T04:46:41.206Z,5.43
2019-04-07T04:49:11.863Z,5.27
2019-04-07T04:51:42.532Z,5.30
2019-04-07T04:54:12.635Z,5.90
2019-04-07T04:56:43.404Z,7.07
2019-04-07T04:59:14.831Z,7.10
2019-04-07T05:01:44.847Z,7.83
2019-04-07T05:04:15.186Z,8.40
2019-04-07T05:06:45.671Z,9.83
2019-04-07T05:09:16.289Z,12.50
2019-04-07T05:11:46.148Z,9.90
2019-04-07T05:14:16.545Z,6.67
2019-04-07T05:16:46.443Z,8.03
2019-04-07T05:19:16.991Z,6.73
2019-04-07T05:21:47.008Z,7.00
2019-04-07T05:24:16.933Z,6.50
2019-04-07T05:26:47.701Z,7.13
2019-04-07T05:29:17.894Z,5.40
2019-04-07T05:31:49.197Z,6.50
2019-04-07T05:34:21.877Z,9.77
2019-04-07T05:36:51.205Z,6.97
2019-04-07T05:39:21.755Z,6.87
2019-04-07T05:41:53.639Z,7.10
2019-04-07T05:44:24.449Z,8.53
2019-04-07T05:46:54.873Z,7.37
2019-04-07T05:49:24.720Z,7.30
2019-04-07T05:51:55.532Z,6.50
2019-04-07T05:54:25.511Z,8.27
2019-04-07T05:56:58.628Z,6.83
2019-04-07T05:59:27.834Z,7.87
2019-04-07T06:02:00.759Z,9.20
2019-04-07T06:04:30.430Z,6.63
2019-04-07T06:07:01.405Z,7.10
2019-04-07T06:09:33.826Z,6.73
2019-04-07T06:12:05.862Z,6.27
2019-04-07T06:14:35.298Z,7.67
2019-04-07T06:17:06.407Z,6.30
2019-04-07T06:19:39.512Z,5.30
2019-04-07T06:22:08.663Z,9.60
2019-04-07T06:24:39.451Z,5.20
2019-04-07T06:27:09.819Z,9.10
2019-04-07T06:29:39.906Z,6.07
2019-04-07T06:32:11.157Z,5.80
2019-04-07T06:34:43.660Z,6.23
2019-04-07T06:37:13.361Z,5.53
2019-04-07T06:39:44.284Z,7.77
2019-04-07T06:42:14.695Z,6.90
2019-04-07T06:44:44.597Z,6.90
2019-04-07T06:47:18.699Z,6.10
2019-04-07T06:50:08.582Z,9.33
2019-04-07T06:52:48.674Z,6.77
2019-04-07T06:55:35.275Z,10.33
2019-04-07T06:58:24.320Z,6.37
2019-04-07T07:01:26.584Z,5.67
2019-04-07T07:04:15.738Z,5.67
2019-04-07T07:07:07.591Z,6.13
2019-04-07T07:09:59.686Z,5.40
2019-04-07T07:12:48.506Z,5.83
2019-04-07T07:15:37.130Z,5.87
2019-04-07T07:18:23.162Z,7.27
2019-04-07T07:21:07.364Z,6.97
2019-04-07T07:23:39.814Z,6.27
2019-04-07T07:26:11.487Z,6.57
2019-04-07T07:28:43.885Z,6.47
2019-04-07T07:31:14.252Z,10.70
2019-04-07T07:33:44.743Z,6.23
2019-04-07T07:36:17.332Z,6.17
2019-04-07T07:38:57.533Z,5.70
2019-04-07T07:41:22.383Z,7.37
2019-04-07T07:43:51.603Z,6.60
2019-04-07T07:46:22.861Z,6.17
2019-04-07T07:48:57.100Z,6.47
2019-04-07T07:51:25.721Z,7.63
2019-04-07T07:53:58.575Z,7.77
2019-04-07T07:56:27.974Z,7.60
2019-04-07T07:59:00.252Z,6.60
2019-04-07T08:01:31.080Z,5.50
2019-04-07T08:04:00.943Z,9.20
2019-04-07T08:06:30.754Z,6.10
2019-04-07T08:09:09.878Z,8.03
2019-04-07T08:11:34.696Z,5.57
2019-04-07T08:14:05.637Z,7.30
2019-04-07T08:16:35.701Z,7.07
2019-04-07T08:19:09.138Z,6.70
2019-04-07T08:21:39.241Z,5.67
2019-04-07T08:24:10.179Z,6.83
2019-04-07T08:26:40.564Z,6.13
2019-04-07T08:29:12.548Z,5.80
2019-04-07T08:31:42.895Z,5.83
2019-04-07T08:34:14.257Z,6.30
2019-04-07T08:36:45.395Z,5.63
2019-04-07T08:39:22.712Z,6.67
2019-04-07T08:41:48.210Z,7.60
2019-04-07T08:44:18.151Z,6.13
2019-04-07T08:46:48.537Z,6.33
2019-04-07T08:49:19.182Z,9.90
2019-04-07T08:51:50.598Z,6.37
2019-04-07T08:54:21.501Z,8.17
2019-04-07T08:56:52.050Z,12.40
2019-04-07T08:59:21.952Z,5.87
2019-04-07T09:01:54.180Z,6.77
2019-04-07T09:04:24.203Z,8.00
2019-04-07T09:06:54.850Z,7.93
2019-04-07T09:09:32.806Z,6.30
2019-04-07T09:11:57.558Z,9.07
2019-04-07T09:14:28.355Z,6.57
2019-04-07T09:17:23.253Z,7.03
2019-04-07T09:20:10.692Z,7.00
2019-04-07T09:23:02.987Z,7.17
2019-04-07T09:25:51.784Z,6.33
2019-04-07T09:28:38.928Z,6.80
2019-04-07T09:31:39.888Z,6.43
2019-04-07T09:34:38.030Z,7.07
2019-04-07T09:37:27.245Z,6.13
2019-04-07T09:40:17.580Z,7.83
2019-04-07T09:43:24.874Z,7.50
2019-04-07T09:46:10.257Z,7.40
2019-04-07T09:48:59.946Z,7.43
2019-04-07T09:51:58.349Z,6.47
2019-04-07T09:54:55.512Z,9.03
2019-04-07T09:57:36.062Z,9.87
2019-04-07T10:00:12.762Z,7.90
2019-04-07T10:03:07.753Z,9.00
2019-04-07T10:06:00.934Z,10.50
2019-04-07T10:08:37.374Z,8.63
2019-04-07T10:11:26.341Z,11.00
2019-04-07T10:14:15.526Z,10.20
2019-04-07T10:16:55.058Z,11.70
2019-04-07T10:19:59.911Z,9.60
2019-04-07T10:22:48.381Z,8.57
2019-04-07T10:25:39.080Z,9.43
2019-04-07T10:28:23.331Z,10.70
2019-04-07T10:31:04.758Z,11.07
2019-04-07T10:33:49.459Z,10.33
2019-04-07T10:36:42.835Z,11.30
2019-04-07T10:39:41.450Z,9.93
2019-04-07T10:42:45.939Z,9.77
2019-04-07T10:45:46.877Z,13.53
2019-04-07T10:48:41.526Z,11.60
2019-04-07T10:51:18.458Z,12.10
2019-04-07T10:54:06.625Z,14.37
2019-04-07T10:56:58.154Z,12.13
2019-04-07T10:59:47.436Z,13.37
2019-04-07T11:02:36.132Z,14.23
2019-04-07T11:05:41.173Z,12.30
2019-04-07T11:08:40.025Z,12.23
2019-04-07T11:11:26.782Z,13.80
2019-04-07T11:14:34.072Z,13.80
2019-04-07T11:17:19.317Z,15.63
2019-04-07T11:20:08.152Z,15.67
2019-04-07T11:23:01.986Z,12.83
2019-04-07T11:25:49.427Z,14.23
2019-04-07T11:28:41.254Z,13.30
2019-04-07T11:31:28.367Z,15.70
2019-04-07T11:34:03.260Z,16.60
2019-04-07T11:36:54.844Z,14.47
2019-04-07T11:39:42.469Z,14.00
2019-04-07T11:42:40.442Z,13.77
2019-04-07T11:45:31.995Z,18.47
2019-04-07T11:48:20.996Z,17.93
2019-04-07T11:51:19.505Z,14.60
2019-04-07T11:54:08.684Z,16.07
2019-04-07T11:57:15.442Z,17.47
2019-04-07T11:59:52.283Z,19.60
2019-04-07T12:02:53.644Z,18.33
2019-04-07T12:05:39.835Z,23.93
2019-04-07T12:08:32.272Z,22.50
2019-04-07T12:11:06.576Z,25.17
2019-04-07T12:13:54.326Z,20.07
2019-04-07T12:16:38.009Z,20.60
2019-04-07T12:19:33.359Z,24.87
2019-04-07T12:22:26.074Z,21.67
2019-04-07T12:25:33.350Z,21.70
2019-04-07T12:28:17.028Z,23.87
2019-04-07T12:31:02.025Z,18.47
2019-04-07T12:33:44.195Z,21.13
2019-04-07T12:36:41.946Z,20.93
2019-04-07T12:39:49.394Z,20.90
2019-04-07T12:42:23.740Z,22.13
2019-04-07T12:45:31.890Z,21.33
2019-04-07T12:48:21.176Z,17.50
2019-04-07T12:50:58.426Z,15.27
2019-04-07T12:53:53.781Z,20.33
2019-04-07T12:56:40.548Z,17.30
2019-04-07T12:59:29.890Z,16.70
2019-04-07T13:02:18.987Z,16.27
2019-04-07T13:05:07.243Z,19.43
2019-04-07T13:07:55.164Z,18.70
2019-04-07T13:10:47.260Z,19.00
2019-04-07T13:13:48.852Z,16.50
2019-04-07T13:16:54.676Z,17.30
2019-04-07T13:19:33.145Z,21.43
2019-04-07T13:22:18.278Z,14.63
2019-04-07T13:24:58.144Z,14.97
2019-04-07T13:27:39.257Z,12.97
2019-04-07T13:30:28.828Z,15.47
2019-04-07T13:33:33.146Z,13.03
2019-04-07T13:36:31.347Z,13.27
2019-04-07T13:39:10.757Z,11.20
2019-04-07T13:42:08.841Z,10.57
2019-04-07T13:45:15.360Z,12.77
2019-04-07T13:48:05.428Z,10.77
2019-04-07T13:51:11.738Z,11.63
2019-04-07T13:53:57.649Z,10.30
2019-04-07T13:56:47.091Z,10.17
2019-04-07T13:59:24.832Z,11.07
2019-04-07T14:02:12.125Z,11.83
2019-04-07T14:04:48.864Z,13.73
2019-04-07T14:07:36.134Z,12.23
2019-04-07T14:10:24.428Z,14.20
2019-04-07T14:13:06.252Z,15.40
2019-04-07T14:16:01.801Z,13.87
2019-04-07T14:19:09.149Z,16.67
2019-04-07T14:22:04.392Z,15.70
2019-04-07T14:24:53.746Z,13.57
2019-04-07T14:27:42.651Z,15.10
2019-04-07T14:30:35.441Z,15.97
2019-04-07T14:33:23.064Z,16.23
2019-04-07T14:36:08.275Z,16.53
2019-04-07T14:38:43.095Z,14.90
2019-04-07T14:41:39.035Z,15.23
2019-04-07T14:44:18.264Z,15.23
2019-04-07T14:47:12.786Z,15.67
2019-04-07T14:50:16.771Z,17.30
2019-04-07T14:53:21.076Z,18.03
2019-04-07T14:56:18.716Z,17.37
2019-04-07T14:59:11.648Z,18.20
2019-04-07T15:01:53.723Z,18.33
2019-04-07T15:04:27.310Z,18.27
2019-04-07T15:07:16.139Z,17.00
2019-04-07T15:09:54.642Z,20.03
2019-04-07T15:12:33.884Z,19.97
2019-04-07T15:15:09.926Z,18.00
2019-04-07T15:17:39.684Z,19.23
2019-04-07T15:20:14.014Z,17.50
2019-04-07T15:22:47.241Z,17.47
2019-04-07T15:25:18.438Z,18.53
2019-04-07T15:27:58.451Z,17.80
2019-04-07T15:30:28.542Z,15.70
2019-04-07T15:33:02.478Z,20.13
2019-04-07T15:35:34.125Z,17.63
2019-04-07T15:38:05.818Z,18.40
2019-04-07T15:40:39.617Z,16.70
2019-04-07T15:43:12.547Z,17.30
2019-04-07T15:45:44.757Z,17.73
2019-04-07T15:48:17.310Z,13.63
2019-04-07T15:50:49.282Z,17.57
2019-04-07T15:53:22.116Z,16.27
2019-04-07T15:56:01.133Z,15.27
2019-04-07T15:58:27.630Z,15.53
2019-04-07T16:01:00.138Z,20.90
2019-04-07T16:03:33.100Z,22.30
2019-04-07T16:06:05.742Z,17.63
2019-04-07T16:08:38.241Z,16.73
2019-04-07T16:11:10.455Z,16.10
2019-04-07T16:13:42.283Z,24.17
2019-04-07T16:16:15.616Z,15.23
2019-04-07T16:18:48.587Z,14.50
2019-04-07T16:21:20.687Z,16.07
2019-04-07T16:23:54.013Z,14.50
2019-04-07T16:26:30.147Z,15.27
2019-04-07T16:28:59.062Z,34.97
2019-04-07T16:31:28.898Z,16.67
2019-04-07T16:34:01.333Z,14.43
2019-04-07T16:36:32.971Z,16.97
2019-04-07T16:39:03.495Z,16.40
2019-04-07T16:41:35.000Z,14.50
2019-04-07T16:44:08.236Z,14.70
2019-04-07T16:46:37.089Z,17.30
2019-04-07T16:49:11.043Z,14.40
2019-04-07T16:51:40.449Z,13.70
2019-04-07T16:54:11.739Z,12.00
2019-04-07T16:56:42.305Z,14.60
2019-04-07T16:59:13.508Z,11.87
2019-04-07T17:01:45.584Z,12.70
2019-04-07T17:04:21.272Z,11.57
2019-04-07T17:07:01.637Z,11.93
2019-04-07T17:09:28.239Z,13.07
2019-04-07T17:11:58.986Z,11.50
2019-04-07T17:14:34.480Z,11.57
2019-04-07T17:17:03.667Z,12.20
2019-04-07T17:19:38.369Z,10.20
2019-04-07T17:22:12.922Z,10.27
2019-04-07T17:24:42.786Z,12.33
2019-04-07T17:27:13.347Z,13.03
2019-04-07T17:29:44.147Z,13.17
2019-04-07T17:32:14.506Z,13.23
2019-04-07T17:34:46.576Z,15.10
2019-04-07T17:37:18.042Z,13.77
2019-04-07T17:39:58.028Z,13.93
2019-04-07T17:42:28.763Z,15.73
2019-04-07T17:45:16.283Z,12.80
2019-04-07T17:48:09.808Z,15.13
2019-04-07T17:51:09.725Z,13.23
2019-04-07T17:53:58.803Z,12.47
2019-04-07T17:56:49.566Z,13.90
2019-04-07T17:59:44.851Z,13.10
2019-04-07T18:02:27.928Z,14.63
2019-04-07T18:05:14.919Z,11.83
2019-04-07T18:08:02.955Z,16.43
2019-04-07T18:10:54.163Z,16.17
2019-04-07T18:13:49.888Z,15.00
2019-04-07T18:16:35.302Z,14.40
2019-04-07T18:19:28.862Z,15.17
2019-04-07T18:22:20.475Z,13.67
2019-04-07T18:24:55.048Z,13.40
2019-04-07T18:27:38.290Z,15.07
2019-04-07T18:30:37.037Z,12.63
2019-04-07T18:33:26.971Z,16.00
2019-04-07T18:36:16.326Z,15.83
2019-04-07T18:39:26.024Z,13.20
2019-04-07T18:42:17.790Z,13.10
2019-04-07T18:45:23.088Z,12.70
2019-04-07T18:48:02.314Z,13.00
2019-04-07T18:51:01.449Z,16.27
2019-04-07T18:53:45.383Z,15.13
2019-04-07T18:56:29.177Z,13.10
2019-04-07T18:59:12.756Z,14.23
2019-04-07T19:02:05.044Z,12.83
2019-04-07T19:04:53.283Z,20.50
2019-04-07T19:07:45.871Z,15.13
2019-04-07T19:10:35.594Z,14.13
2019-04-07T19:13:26.812Z,16.60
2019-04-07T19:16:12.581Z,14.10
2019-04-07T19:18:58.568Z,12.50
2019-04-07T19:21:49.596Z,13.07
2019-04-07T19:24:47.513Z,14.83
2019-04-07T19:27:36.297Z,13.23
2019-04-07T19:30:37.078Z,12.33
2019-04-07T19:33:28.685Z,14.33
2019-04-07T19:36:15.376Z,15.70
2019-04-07T19:39:04.802Z,12.90
2019-04-07T19:42:08.133Z,12.30
2019-04-07T19:45:09.860Z,15.63
2019-04-07T19:48:08.689Z,15.87
2019-04-07T19:50:57.128Z,13.10
2019-04-07T19:53:44.284Z,15.70
2019-04-07T19:56:32.330Z,16.73
2019-04-07T19:59:19.504Z,19.00
2019-04-07T20:02:07.531Z,21.77
2019-04-07T20:04:52.509Z,19.27
2019-04-07T20:07:52.635Z,19.50
2019-04-07T20:10:40.799Z,16.90
2019-04-07T20:13:40.463Z,15.67
2019-04-07T20:16:33.964Z,15.90
2019-04-07T20:19:34.623Z,16.70
2019-04-07T20:22:22.684Z,24.57
2019-04-07T20:25:12.386Z,18.97
2019-04-07T20:28:15.294Z,20.73
2019-04-07T20:31:03.740Z,26.03
2019-04-07T20:33:51.223Z,19.80
2019-04-07T20:36:42.506Z,18.30
2019-04-07T20:39:39.107Z,18.50
2019-04-07T20:42:34.700Z,18.00
2019-04-07T20:45:31.080Z,18.10
2019-04-07T20:48:23.203Z,16.37
2019-04-07T20:51:14.797Z,19.27
2019-04-07T20:54:03.417Z,16.63
2019-04-07T20:57:05.004Z,18.47
2019-04-07T20:59:50.050Z,17.30
2019-04-07T21:02:45.365Z,16.47
2019-04-07T21:05:40.069Z,17.57
2019-04-07T21:08:25.961Z,15.47
2019-04-07T21:11:24.330Z,18.40
2019-04-07T21:14:11.353Z,16.43
2019-04-07T21:17:15.930Z,16.50
2019-04-07T21:20:05.469Z,14.77
2019-04-07T21:22:45.208Z,19.70
2019-04-07T21:25:37.124Z,17.00
2019-04-07T21:28:43.869Z,15.87
2019-04-07T21:31:30.163Z,13.90
2019-04-07T21:34:34.398Z,16.87
2019-04-07T21:37:26.033Z,17.33
2019-04-07T21:40:21.535Z,16.67
2019-04-07T21:43:05.802Z,13.57
2019-04-07T21:45:51.535Z,14.13
2019-04-07T21:48:33.250Z,16.30
2019-04-07T21:51:24.795Z,14.67
2019-04-07T21:54:16.415Z,15.87
2019-04-07T21:56:58.079Z,13.87
2019-04-07T22:00:02.885Z,15.83
2019-04-07T22:02:55.002Z,14.53
2019-04-07T22:05:39.280Z,15.17
2019-04-07T22:08:17.299Z,15.20
2019-04-07T22:10:45.418Z,15.80
2019-04-07T22:13:15.468Z,17.67
2019-04-07T22:15:49.554Z,12.37
2019-04-07T22:18:17.374Z,13.53
2019-04-07T22:20:47.882Z,13.13
2019-04-07T22:23:18.798Z,13.80
2019-04-07T22:25:54.575Z,14.60
2019-04-07T22:28:27.829Z,14.40
2019-04-07T22:30:57.233Z,13.03
2019-04-07T22:33:31.043Z,15.90
2019-04-07T22:35:59.670Z,12.93
2019-04-07T22:38:29.758Z,14.23
2019-04-07T22:41:00.528Z,13.47
2019-04-07T22:43:30.351Z,15.20
2019-04-07T22:46:08.523Z,14.10
2019-04-07T22:48:32.579Z,15.70
2019-04-07T22:51:03.795Z,15.80
2019-04-07T22:53:34.986Z,14.67
2019-04-07T22:56:07.405Z,15.10
2019-04-07T22:58:36.566Z,16.17
2019-04-07T23:01:07.637Z,14.80
2019-04-07T23:03:38.017Z,15.73
2019-04-07T23:06:07.804Z,14.73
2019-04-07T23:08:37.964Z,12.77
2019-04-07T23:11:08.698Z,14.30
2019-04-07T23:13:38.489Z,16.33
2019-04-07T23:16:13.519Z,13.93
2019-04-07T23:18:40.239Z,13.50
2019-04-07T23:21:09.962Z,16.10
2019-04-07T23:23:39.870Z,14.90
2019-04-07T23:26:09.672Z,15.20
2019-04-07T23:28:40.263Z,12.93
2019-04-07T23:31:10.050Z,13.80
2019-04-07T23:33:40.546Z,13.63
2019-04-07T23:36:10.353Z,12.60
2019-04-07T23:38:41.090Z,13.43
2019-04-07T23:41:11.698Z,14.13
2019-04-07T23:43:41.827Z,14.87
2019-04-07T23:46:20.700Z,18.17
2019-04-07T23:48:43.751Z,13.70
2019-04-07T23:51:14.313Z,12.93
2019-04-07T23:54:12.150Z,12.70
2019-04-07T23:56:43.834Z,14.17
2019-04-07T23:59:14.880Z,14.13
